createdAt,value
2018-06-17T00:00:08.376Z,99.90
2018-06-17T00:02:35.328Z,99.90
2018-06-17T00:05:02.307Z,99.90
2018-06-17T00:07:29.297Z,99.90
2018-06-17T00:09:56.267Z,99.90
2018-06-17T00:12:23.209Z,99.90
2018-06-17T00:14:50.119Z,99.90
2018-06-17T00:17:17.104Z,99.90
2018-06-17T00:19:44.045Z,99.90
2018-06-17T00:22:10.971Z,99.90
2018-06-17T00:24:37.916Z,99.90
2018-06-17T00:27:04.860Z,99.90
2018-06-17T00:29:31.788Z,99.90
2018-06-17T00:31:59.470Z,99.90
2018-06-17T00:34:26.907Z,99.90
2018-06-17T00:36:54.107Z,99.90
2018-06-17T00:39:21.053Z,99.90
2018-06-17T00:41:48.033Z,99.90
2018-06-17T00:44:15.662Z,99.90
2018-06-17T00:46:42.809Z,99.90
2018-06-17T00:49:09.957Z,99.90
2018-06-17T00:51:36.915Z,99.90
2018-06-17T00:54:03.901Z,99.90
2018-06-17T00:56:31.741Z,99.90
2018-06-17T00:58:58.742Z,99.90
2018-06-17T01:01:25.592Z,99.90
2018-06-17T01:03:52.540Z,99.90
2018-06-17T01:06:19.568Z,99.90
2018-06-17T01:08:46.463Z,99.90
2018-06-17T01:11:13.449Z,99.90
2018-06-17T01:13:40.404Z,99.90
2018-06-17T01:16:08.265Z,99.90
2018-06-17T01:18:36.032Z,99.90
2018-06-17T01:21:03.043Z,99.90
2018-06-17T01:23:30.027Z,99.90
2018-06-17T01:25:57.005Z,99.90
2018-06-17T01:28:23.970Z,99.90
2018-06-17T01:30:50.967Z,99.90
2018-06-17T01:33:18.658Z,99.90
2018-06-17T01:35:45.553Z,99.90
2018-06-17T01:38:12.504Z,99.90
2018-06-17T01:40:40.168Z,99.90
2018-06-17T01:43:07.884Z,99.90
2018-06-17T01:45:35.426Z,99.90
2018-06-17T01:48:02.321Z,99.90
2018-06-17T01:50:29.252Z,99.90
2018-06-17T01:52:56.121Z,99.90
2018-06-17T01:55:23.059Z,99.90
2018-06-17T01:57:50.379Z,99.90
2018-06-17T02:00:18.104Z,99.90
2018-06-17T02:02:45.817Z,99.90
2018-06-17T02:05:31.587Z,99.90
2018-06-17T02:08:15.285Z,99.90
2018-06-17T02:10:57.049Z,99.90
2018-06-17T02:13:24.057Z,99.90
2018-06-17T02:15:50.931Z,99.90
2018-06-17T02:18:17.955Z,99.90
2018-06-17T02:20:44.840Z,99.90
2018-06-17T02:23:11.773Z,99.90
2018-06-17T02:25:38.728Z,99.90
2018-06-17T02:28:05.655Z,99.90
2018-06-17T02:30:32.613Z,99.90
2018-06-17T02:32:59.504Z,99.90
2018-06-17T02:35:27.245Z,99.90
2018-06-17T02:37:54.126Z,99.90
2018-06-17T02:40:21.109Z,99.90
2018-06-17T02:42:48.153Z,99.90
2018-06-17T02:45:15.122Z,99.90
2018-06-17T02:47:58.880Z,99.90
2018-06-17T02:50:25.815Z,99.90
2018-06-17T02:52:58.757Z,99.90
2018-06-17T02:55:25.669Z,99.90
2018-06-17T02:57:52.681Z,99.90
2018-06-17T03:00:19.565Z,99.90
2018-06-17T03:02:46.582Z,99.90
2018-06-17T03:05:13.464Z,99.90
2018-06-17T03:07:40.421Z,99.90
2018-06-17T03:10:07.337Z,99.90
2018-06-17T03:12:34.335Z,99.90
2018-06-17T03:15:01.283Z,99.90
2018-06-17T03:17:28.362Z,99.90
2018-06-17T03:19:55.267Z,99.90
2018-06-17T03:22:22.220Z,99.90
2018-06-17T03:24:49.439Z,99.90
2018-06-17T03:27:32.179Z,99.90
2018-06-17T03:30:13.970Z,99.90
2018-06-17T03:32:46.868Z,99.90
2018-06-17T03:35:14.089Z,99.90
2018-06-17T03:37:41.109Z,99.90
2018-06-17T03:40:08.008Z,99.90
2018-06-17T03:42:34.944Z,99.90
2018-06-17T03:45:01.916Z,99.90
2018-06-17T03:47:28.987Z,99.90
2018-06-17T03:49:56.716Z,99.90
2018-06-17T03:52:24.190Z,99.90
2018-06-17T03:54:51.150Z,99.90
2018-06-17T03:57:18.037Z,99.90
2018-06-17T03:59:45.741Z,99.90
2018-06-17T04:02:12.630Z,99.90
2018-06-17T04:04:39.862Z,99.90
2018-06-17T04:07:07.001Z,99.90
2018-06-17T04:09:33.965Z,99.90
2018-06-17T04:12:00.866Z,99.90
2018-06-17T04:14:27.915Z,99.90
2018-06-17T04:16:54.980Z,99.90
2018-06-17T04:19:22.053Z,99.90
2018-06-17T04:21:49.009Z,99.90
2018-06-17T04:24:15.951Z,99.90
2018-06-17T04:26:43.073Z,99.90
2018-06-17T04:29:09.997Z,99.90
2018-06-17T04:31:36.956Z,99.90
2018-06-17T04:34:03.954Z,99.90
2018-06-17T04:36:30.868Z,99.90
2018-06-17T04:38:57.845Z,99.90
2018-06-17T04:41:24.797Z,99.90
2018-06-17T04:43:52.487Z,99.90
2018-06-17T04:46:19.482Z,99.90
2018-06-17T04:49:35.067Z,99.90
2018-06-17T04:52:02.129Z,99.90
2018-06-17T04:54:29.040Z,99.90
2018-06-17T04:56:56.179Z,99.90
2018-06-17T04:59:23.065Z,99.90
2018-06-17T05:01:50.008Z,99.90
2018-06-17T05:04:17.017Z,99.90
2018-06-17T05:06:43.965Z,99.90
2018-06-17T05:09:11.000Z,99.90
2018-06-17T05:11:37.879Z,99.90
2018-06-17T05:14:04.860Z,99.90
2018-06-17T05:16:31.825Z,98.10
2018-06-17T05:18:59.451Z,95.10
2018-06-17T05:21:26.407Z,95.10
2018-06-17T05:23:53.355Z,93.10
2018-06-17T05:26:20.251Z,92.20
2018-06-17T05:28:47.181Z,90.90
2018-06-17T05:31:14.111Z,88.90
2018-06-17T05:33:41.106Z,90.10
2018-06-17T05:36:07.979Z,91.90
2018-06-17T05:38:34.929Z,93.80
2018-06-17T05:41:01.919Z,95.90
2018-06-17T05:43:28.836Z,97.10
2018-06-17T05:45:56.546Z,99.10
2018-06-17T05:48:23.428Z,99.10
2018-06-17T05:50:50.854Z,99.90
2018-06-17T05:53:18.000Z,99.90
2018-06-17T05:55:44.878Z,99.90
2018-06-17T05:58:11.929Z,99.90
2018-06-17T06:00:38.849Z,99.90
2018-06-17T06:03:05.784Z,99.90
2018-06-17T06:05:32.752Z,99.90
2018-06-17T06:07:59.760Z,99.90
2018-06-17T06:10:26.666Z,99.90
2018-06-17T06:12:53.984Z,99.90
2018-06-17T06:15:20.862Z,99.90
2018-06-17T06:17:47.826Z,99.90
2018-06-17T06:20:15.453Z,99.90
2018-06-17T06:22:42.396Z,99.90
2018-06-17T06:25:09.347Z,99.90
2018-06-17T06:27:36.330Z,99.90
2018-06-17T06:30:04.157Z,99.90
2018-06-17T06:32:31.032Z,99.90
2018-06-17T06:34:57.963Z,99.90
2018-06-17T06:37:24.929Z,99.90
2018-06-17T06:39:51.933Z,99.90
2018-06-17T06:42:18.812Z,99.90
2018-06-17T06:44:45.740Z,99.90
2018-06-17T06:47:12.728Z,99.60
2018-06-17T06:49:39.702Z,99.10
2018-06-17T06:52:06.620Z,99.30
2018-06-17T06:54:33.694Z,99.40
2018-06-17T06:57:00.763Z,99.60
2018-06-17T06:59:27.666Z,99.20
2018-06-17T07:02:07.617Z,99.20
2018-06-17T07:05:00.465Z,99.10
2018-06-17T07:07:40.381Z,98.40
2018-06-17T07:10:08.479Z,98.30
2018-06-17T07:12:36.141Z,97.40
2018-06-17T07:15:03.255Z,97.40
2018-06-17T07:17:56.756Z,97.30
2018-06-17T07:20:23.792Z,97.70
2018-06-17T07:22:50.747Z,97.80
2018-06-17T07:25:17.648Z,98.10
2018-06-17T07:27:44.711Z,98.10
2018-06-17T07:30:11.670Z,99.00
2018-06-17T07:32:38.660Z,97.90
2018-06-17T07:35:05.671Z,98.10
2018-06-17T07:37:32.563Z,98.00
2018-06-17T07:39:59.604Z,97.70
2018-06-17T07:42:27.215Z,97.20
2018-06-17T07:44:54.216Z,97.10
2018-06-17T07:47:22.946Z,96.60
2018-06-17T07:50:11.685Z,96.70
2018-06-17T07:53:15.383Z,96.50
2018-06-17T07:55:43.361Z,95.90
2018-06-17T07:58:10.432Z,95.70
2018-06-17T08:00:37.337Z,95.90
2018-06-17T08:03:04.325Z,95.80
2018-06-17T08:05:31.307Z,95.00
2018-06-17T08:07:58.980Z,93.30
2018-06-17T08:10:26.774Z,93.80
2018-06-17T08:12:53.662Z,93.80
2018-06-17T08:15:20.617Z,93.30
2018-06-17T08:17:47.499Z,92.00
2018-06-17T08:20:14.449Z,91.20
2018-06-17T08:22:41.449Z,91.70
2018-06-17T08:25:08.340Z,89.80
2018-06-17T08:27:35.281Z,89.50
2018-06-17T08:30:02.328Z,85.50
2018-06-17T08:32:29.230Z,85.10
2018-06-17T08:34:56.290Z,83.70
2018-06-17T08:37:23.172Z,80.50
2018-06-17T08:39:50.052Z,80.80
2018-06-17T08:42:17.092Z,77.00
2018-06-17T08:44:43.971Z,76.20
2018-06-17T08:47:10.955Z,74.90
2018-06-17T08:49:37.887Z,72.60
2018-06-17T08:52:04.850Z,71.10
2018-06-17T08:54:31.734Z,69.40
2018-06-17T08:56:58.740Z,69.50
2018-06-17T08:59:26.615Z,68.00
2018-06-17T09:01:53.588Z,68.00
2018-06-17T09:04:20.566Z,67.40
2018-06-17T09:06:47.448Z,67.90
2018-06-17T09:09:15.304Z,68.20
2018-06-17T09:11:42.994Z,69.30
2018-06-17T09:14:09.946Z,69.30
2018-06-17T09:16:36.842Z,68.00
2018-06-17T09:19:04.905Z,68.00
2018-06-17T09:21:31.816Z,69.90
2018-06-17T09:23:58.842Z,69.40
2018-06-17T09:26:25.708Z,69.10
2018-06-17T09:28:52.819Z,71.20
2018-06-17T09:31:20.582Z,70.60
2018-06-17T09:33:47.486Z,70.50
2018-06-17T09:36:14.586Z,72.40
2018-06-17T09:38:41.596Z,73.50
2018-06-17T09:41:08.584Z,74.80
2018-06-17T09:43:35.693Z,76.30
2018-06-17T09:46:02.595Z,71.60
2018-06-17T09:48:29.540Z,68.90
2018-06-17T09:50:56.466Z,66.30
2018-06-17T09:53:23.413Z,65.00
2018-06-17T09:55:50.364Z,64.00
2018-06-17T09:58:17.473Z,64.00
2018-06-17T10:00:44.501Z,63.20
2018-06-17T10:03:11.443Z,60.00
2018-06-17T10:05:38.456Z,60.20
2018-06-17T10:08:05.381Z,62.00
2018-06-17T10:10:33.342Z,62.10
2018-06-17T10:13:00.258Z,61.20
2018-06-17T10:15:27.262Z,63.10
2018-06-17T10:17:54.309Z,62.20
2018-06-17T10:20:21.263Z,63.10
2018-06-17T10:22:48.300Z,64.10
2018-06-17T10:25:15.298Z,61.90
2018-06-17T10:27:43.257Z,61.30
2018-06-17T10:30:10.327Z,61.20
2018-06-17T10:32:37.349Z,61.70
2018-06-17T10:35:04.363Z,63.50
2018-06-17T10:37:32.025Z,62.20
2018-06-17T10:39:59.005Z,62.20
2018-06-17T10:42:25.921Z,63.80
2018-06-17T10:44:52.966Z,63.50
2018-06-17T10:47:20.144Z,64.90
2018-06-17T10:49:47.132Z,65.40
2018-06-17T10:52:14.036Z,65.20
2018-06-17T10:54:40.999Z,67.60
2018-06-17T10:57:08.017Z,67.20
2018-06-17T10:59:34.905Z,67.40
2018-06-17T11:02:15.138Z,67.80
2018-06-17T11:04:43.509Z,67.20
2018-06-17T11:07:10.848Z,65.70
2018-06-17T11:09:37.834Z,66.70
2018-06-17T11:12:04.930Z,67.80
2018-06-17T11:14:32.028Z,66.70
2018-06-17T11:16:59.262Z,67.40
2018-06-17T11:19:37.967Z,68.10
2018-06-17T11:22:05.010Z,67.80
2018-06-17T11:24:32.640Z,68.60
2018-06-17T11:26:59.616Z,68.50
2018-06-17T11:29:26.541Z,68.70
2018-06-17T11:31:54.236Z,70.20
2018-06-17T11:34:21.210Z,70.10
2018-06-17T11:36:48.893Z,69.10
2018-06-17T11:39:15.820Z,69.10
2018-06-17T11:41:50.648Z,69.20
2018-06-17T11:44:17.568Z,71.50
2018-06-17T11:46:45.264Z,70.30
2018-06-17T11:49:12.249Z,70.10
2018-06-17T11:51:39.174Z,69.80
2018-06-17T11:54:06.112Z,72.10
2018-06-17T11:56:33.064Z,70.70
2018-06-17T11:59:00.090Z,70.20
2018-06-17T12:01:26.995Z,69.80
2018-06-17T12:03:54.093Z,70.70
2018-06-17T12:06:21.065Z,75.40
2018-06-17T12:08:48.010Z,75.20
2018-06-17T12:11:14.894Z,74.00
2018-06-17T12:13:42.652Z,72.20
2018-06-17T12:16:10.308Z,73.40
2018-06-17T12:18:44.294Z,73.30
2018-06-17T12:21:11.180Z,71.30
2018-06-17T12:23:38.852Z,73.40
2018-06-17T12:26:05.748Z,73.40
2018-06-17T12:28:32.705Z,72.30
2018-06-17T12:30:59.652Z,68.90
2018-06-17T12:33:26.588Z,71.30
2018-06-17T12:36:00.237Z,70.20
2018-06-17T12:38:27.273Z,70.00
2018-06-17T12:40:54.974Z,70.60
2018-06-17T12:43:21.964Z,70.50
2018-06-17T12:45:59.502Z,70.80
2018-06-17T12:48:29.099Z,71.30
2018-06-17T12:50:56.916Z,70.60
2018-06-17T12:53:24.831Z,72.30
2018-06-17T12:55:53.371Z,70.90
2018-06-17T12:58:22.315Z,69.30
2018-06-17T13:00:51.476Z,68.20
2018-06-17T13:03:18.794Z,65.00
2018-06-17T13:05:46.905Z,65.80
2018-06-17T13:08:18.318Z,65.00
2018-06-17T13:10:46.217Z,65.60
2018-06-17T13:13:17.713Z,67.00
2018-06-17T13:15:47.151Z,66.10
2018-06-17T13:18:28.755Z,65.10
2018-06-17T13:20:58.761Z,66.20
2018-06-17T13:23:31.011Z,67.70
2018-06-17T13:25:58.212Z,67.40
2018-06-17T13:28:30.441Z,66.50
2018-06-17T13:30:57.684Z,66.50
2018-06-17T13:33:25.211Z,66.30
2018-06-17T13:36:06.526Z,65.10
2018-06-17T13:38:35.404Z,66.60
2018-06-17T13:41:02.593Z,66.60
2018-06-17T13:43:42.683Z,66.10
2018-06-17T13:46:13.164Z,67.20
2018-06-17T13:48:40.596Z,67.00
2018-06-17T13:51:15.569Z,69.80
2018-06-17T13:53:47.823Z,69.70
2018-06-17T13:56:21.714Z,69.70
2018-06-17T13:58:49.762Z,68.90
2018-06-17T14:01:17.139Z,69.60
2018-06-17T14:03:44.430Z,70.20
2018-06-17T14:06:18.061Z,70.70
2018-06-17T14:08:45.731Z,70.80
2018-06-17T14:11:26.628Z,71.30
2018-06-17T14:13:54.696Z,71.30
2018-06-17T14:16:22.732Z,72.00
2018-06-17T14:18:49.873Z,71.80
2018-06-17T14:21:21.724Z,71.90
2018-06-17T14:23:48.809Z,71.70
2018-06-17T14:26:15.827Z,70.70
2018-06-17T14:28:42.833Z,71.00
2018-06-17T14:31:09.979Z,71.70
2018-06-17T14:33:37.793Z,73.20
2018-06-17T14:36:04.823Z,73.20
2018-06-17T14:38:32.165Z,72.70
2018-06-17T14:40:59.234Z,72.30
2018-06-17T14:43:32.169Z,71.40
2018-06-17T14:45:59.989Z,72.40
2018-06-17T14:48:32.889Z,72.30
2018-06-17T14:51:20.265Z,71.90
2018-06-17T14:53:47.394Z,71.40
2018-06-17T14:56:15.089Z,71.80
2018-06-17T14:58:42.142Z,71.70
2018-06-17T15:01:09.153Z,72.00
2018-06-17T15:03:36.043Z,72.60
2018-06-17T15:06:10.893Z,72.30
2018-06-17T15:08:38.285Z,73.40
2018-06-17T15:11:06.045Z,72.10
2018-06-17T15:13:33.321Z,72.10
2018-06-17T15:16:06.588Z,71.10
2018-06-17T15:18:38.281Z,71.10
2018-06-17T15:21:09.433Z,72.40
2018-06-17T15:23:37.705Z,72.30
2018-06-17T15:26:05.373Z,71.90
2018-06-17T15:28:32.358Z,71.90
2018-06-17T15:30:59.412Z,72.00
2018-06-17T15:33:42.146Z,72.60
2018-06-17T15:36:26.684Z,73.80
2018-06-17T15:38:59.588Z,73.70
2018-06-17T15:41:26.993Z,74.30
2018-06-17T15:43:54.957Z,73.40
2018-06-17T15:46:22.609Z,74.90
2018-06-17T15:48:50.255Z,74.00
2018-06-17T15:51:18.483Z,73.50
2018-06-17T15:53:45.606Z,73.50
2018-06-17T15:56:13.308Z,74.90
2018-06-17T15:58:40.260Z,74.90
2018-06-17T16:01:09.170Z,76.50
2018-06-17T16:03:36.323Z,76.70
2018-06-17T16:06:04.503Z,77.10
2018-06-17T16:08:31.594Z,77.10
2018-06-17T16:11:03.826Z,77.10
2018-06-17T16:13:50.116Z,75.70
2018-06-17T16:16:39.199Z,75.40
2018-06-17T16:19:13.153Z,76.60
2018-06-17T16:21:41.511Z,76.40
2018-06-17T16:24:11.824Z,76.40
2018-06-17T16:26:41.641Z,76.50
2018-06-17T16:29:08.881Z,76.20
2018-06-17T16:31:36.088Z,77.10
2018-06-17T16:34:03.096Z,76.70
2018-06-17T16:36:30.785Z,78.30
2018-06-17T16:39:01.713Z,78.50
2018-06-17T16:41:34.359Z,78.50
2018-06-17T16:44:01.689Z,79.10
2018-06-17T16:46:28.578Z,78.50
2018-06-17T16:48:57.084Z,78.70
2018-06-17T16:51:26.032Z,78.70
2018-06-17T16:54:02.271Z,79.70
2018-06-17T16:56:50.334Z,79.70
2018-06-17T16:59:37.104Z,80.20
2018-06-17T17:02:04.074Z,81.00
2018-06-17T17:04:31.068Z,83.10
2018-06-17T17:06:58.727Z,81.60
2018-06-17T17:09:26.352Z,83.40
2018-06-17T17:11:53.383Z,83.50
2018-06-17T17:14:20.291Z,81.80
2018-06-17T17:16:47.285Z,82.40
2018-06-17T17:19:14.278Z,83.30
2018-06-17T17:21:41.976Z,83.30
2018-06-17T17:24:08.849Z,83.30
2018-06-17T17:26:35.922Z,83.00
2018-06-17T17:29:03.628Z,82.50
2018-06-17T17:31:30.690Z,82.40
2018-06-17T17:34:15.426Z,82.00
2018-06-17T17:37:00.422Z,83.80
2018-06-17T17:39:27.755Z,82.20
2018-06-17T17:41:54.684Z,82.30
2018-06-17T17:44:22.381Z,81.70
2018-06-17T17:47:04.785Z,81.70
2018-06-17T17:49:31.905Z,82.00
2018-06-17T17:52:01.550Z,82.60
2018-06-17T17:54:28.764Z,82.70
2018-06-17T17:57:01.402Z,82.70
2018-06-17T17:59:30.051Z,82.70
2018-06-17T18:01:59.993Z,83.70
2018-06-17T18:04:26.962Z,82.50
2018-06-17T18:06:56.159Z,82.50
2018-06-17T18:09:28.357Z,84.30
2018-06-17T18:12:01.152Z,83.20
2018-06-17T18:14:33.708Z,83.30
2018-06-17T18:17:09.591Z,83.20
2018-06-17T18:19:37.384Z,82.40
2018-06-17T18:22:05.851Z,83.10
2018-06-17T18:24:37.449Z,81.30
2018-06-17T18:27:23.686Z,80.80
2018-06-17T18:29:57.456Z,81.20
2018-06-17T18:32:30.037Z,81.30
2018-06-17T18:35:05.192Z,81.50
2018-06-17T18:37:34.939Z,81.70
2018-06-17T18:40:03.407Z,81.70
2018-06-17T18:42:32.765Z,82.60
2018-06-17T18:44:59.749Z,84.30
2018-06-17T18:47:27.705Z,83.90
2018-06-17T18:49:55.232Z,83.90
2018-06-17T18:52:24.377Z,83.70
2018-06-17T18:54:52.594Z,84.30
2018-06-17T18:57:20.171Z,84.30
2018-06-17T18:59:49.846Z,84.20
2018-06-17T19:02:23.794Z,85.20
2018-06-17T19:04:54.831Z,84.30
2018-06-17T19:07:22.929Z,85.00
2018-06-17T19:09:55.971Z,85.00
2018-06-17T19:12:44.013Z,84.70
2018-06-17T19:15:29.105Z,85.30
2018-06-17T19:18:07.080Z,85.70
2018-06-17T19:20:34.701Z,85.60
2018-06-17T19:23:01.573Z,86.20
2018-06-17T19:25:28.673Z,85.70
2018-06-17T19:28:06.042Z,86.40
2018-06-17T19:30:34.017Z,87.60
2018-06-17T19:33:01.065Z,88.20
2018-06-17T19:35:28.061Z,87.10
2018-06-17T19:37:55.162Z,88.40
2018-06-17T19:40:23.292Z,88.30
2018-06-17T19:42:51.371Z,88.40
2018-06-17T19:45:19.226Z,90.00
2018-06-17T19:47:46.257Z,89.60
2018-06-17T19:50:13.237Z,90.30
2018-06-17T19:52:55.626Z,90.20
2018-06-17T19:55:37.431Z,90.70
2018-06-17T19:58:24.990Z,91.10
2018-06-17T20:00:52.046Z,91.00
2018-06-17T20:03:21.036Z,90.90
2018-06-17T20:05:48.065Z,90.90
2018-06-17T20:08:16.435Z,91.30
2018-06-17T20:10:44.239Z,91.70
2018-06-17T20:13:12.005Z,92.90
2018-06-17T20:15:38.994Z,92.90
2018-06-17T20:18:06.021Z,93.90
2018-06-17T20:20:35.377Z,94.50
2018-06-17T20:23:03.315Z,94.20
2018-06-17T20:25:31.078Z,94.60
2018-06-17T20:27:58.046Z,94.60
2018-06-17T20:30:25.032Z,95.60
2018-06-17T20:32:57.987Z,95.40
2018-06-17T20:35:44.785Z,95.80
2018-06-17T20:38:31.313Z,97.70
2018-06-17T20:41:17.043Z,97.70
2018-06-17T20:43:44.077Z,98.40
2018-06-17T20:46:10.973Z,99.30
2018-06-17T20:48:37.997Z,99.70
2018-06-17T20:51:05.836Z,99.90
2018-06-17T20:53:34.067Z,99.90
2018-06-17T20:56:08.722Z,99.90
2018-06-17T20:58:35.802Z,99.90
2018-06-17T21:01:02.866Z,99.90
2018-06-17T21:03:29.828Z,99.90
2018-06-17T21:05:57.528Z,99.90
2018-06-17T21:08:24.419Z,99.90
2018-06-17T21:10:51.395Z,99.90
2018-06-17T21:13:18.996Z,99.90
2018-06-17T21:15:45.945Z,99.90
2018-06-17T21:18:12.989Z,99.90
2018-06-17T21:21:00.275Z,99.90
2018-06-17T21:23:48.541Z,99.90
2018-06-17T21:26:34.418Z,99.90
2018-06-17T21:29:01.498Z,99.90
2018-06-17T21:31:28.882Z,99.90
2018-06-17T21:33:56.094Z,99.90
2018-06-17T21:36:23.580Z,99.90
2018-06-17T21:38:50.828Z,99.90
2018-06-17T21:41:18.592Z,99.90
2018-06-17T21:43:45.482Z,99.90
2018-06-17T21:46:13.195Z,99.90
2018-06-17T21:48:40.278Z,99.90
2018-06-17T21:51:07.622Z,99.90
2018-06-17T21:53:34.650Z,99.90
2018-06-17T21:56:01.649Z,99.90
2018-06-17T21:58:28.795Z,99.90
2018-06-17T22:00:55.919Z,99.90
2018-06-17T22:03:22.980Z,99.90
2018-06-17T22:05:50.022Z,99.90
2018-06-17T22:08:17.278Z,99.90
2018-06-17T22:10:59.164Z,99.90
2018-06-17T22:13:28.737Z,99.90
2018-06-17T22:16:18.130Z,99.90
2018-06-17T22:18:46.672Z,99.90
2018-06-17T22:21:16.157Z,99.90
2018-06-17T22:23:43.302Z,99.90
2018-06-17T22:26:10.373Z,99.90
2018-06-17T22:28:37.492Z,99.90
2018-06-17T22:31:04.520Z,99.90
2018-06-17T22:33:31.661Z,99.90
2018-06-17T22:35:58.684Z,99.90
2018-06-17T22:38:25.748Z,99.90
2018-06-17T22:40:52.737Z,99.90
2018-06-17T22:43:19.620Z,99.90
2018-06-17T22:45:46.568Z,99.90
2018-06-17T22:48:13.496Z,99.90
2018-06-17T22:50:41.133Z,99.90
2018-06-17T22:53:20.181Z,99.90
2018-06-17T22:55:47.083Z,99.90
2018-06-17T22:58:30.842Z,99.90
2018-06-17T23:01:12.653Z,99.90
2018-06-17T23:03:45.707Z,99.90
2018-06-17T23:06:32.504Z,99.90
2018-06-17T23:09:16.333Z,99.90
2018-06-17T23:11:43.224Z,99.90
2018-06-17T23:14:10.190Z,99.90
2018-06-17T23:16:37.837Z,99.90
2018-06-17T23:19:04.808Z,99.90
2018-06-17T23:21:32.429Z,99.90
2018-06-17T23:23:59.385Z,99.90
2018-06-17T23:26:26.258Z,99.90
2018-06-17T23:28:53.240Z,99.90
2018-06-17T23:31:20.131Z,99.90
2018-06-17T23:33:47.144Z,99.90
2018-06-17T23:36:14.073Z,99.90
2018-06-17T23:38:40.984Z,99.90
2018-06-17T23:41:07.928Z,99.90
2018-06-17T23:43:34.884Z,99.90
2018-06-17T23:46:02.637Z,99.90
2018-06-17T23:48:35.662Z,99.90
2018-06-17T23:51:19.449Z,99.90
2018-06-17T23:54:04.245Z,99.90
2018-06-17T23:56:31.897Z,99.90
2018-06-17T23:58:58.796Z,99.90
